Bastille Street — A8YZ6 — position and weather

sailwx.info

Track history (hours):
 
Tides and Currents Weather Stations Pressure Air Temp Water Temp Dewpoint Dewpoint Depression Visibility Wind Speed Wind Dir Waves Ship Positions

Bastille Street

Last reported at 2015-Jul-31 08:33 UTC. Time now 2015-Jul-31 09:26 UTC.
Position N 51°16' E 004°20'.

Length 180 m; draft 8.4 m.

MMSI: 636015161.

Date/timePositionNaut miles runAvg speedWind from/ knotsBaromVisibWave heightAir tempDewpointWater temp
2015-Jul-31 08:33N 51°16' E 004°20'0 0.0
2015-Jul-31 07:27N 51°16' E 004°20'0 0.0
2015-Jul-31 06:30N 51°16' E 004°20'0 0.0
2015-Jul-31 05:32N 51°16' E 004°20'0 0.0
2015-Jul-31 04:32N 51°16' E 004°20'0 0.0
2015-Jul-31 03:32N 51°16' E 004°20'0 0.0
2015-Jul-31 02:29N 51°16' E 004°20'0 0.0
2015-Jul-31 01:32N 51°16' E 004°20'0 0.0
2015-Jul-31 00:33N 51°16' E 004°20'0 0.0
2015-Jul-30 23:32N 51°16' E 004°20'0 0.0
2015-Jul-30 22:32N 51°16' E 004°20'0 0.0
2015-Jul-30 21:32N 51°16' E 004°20'0 0.0
2015-Jul-30 20:33N 51°16' E 004°20'0 0.0
2015-Jul-30 19:29N 51°16' E 004°20'0 0.0
2015-Jul-30 18:33N 51°16' E 004°20'0 0.0
2015-Jul-30 17:33N 51°16' E 004°20'0 0.0
2015-Jul-30 16:32N 51°16' E 004°20'0 0.0
2015-Jul-30 15:33N 51°16' E 004°20'0 0.0
2015-Jul-30 14:27N 51°16' E 004°20'0 0.0
2015-Jul-30 13:30N 51°16' E 004°20'0 0.0
2015-Jul-30 12:33N 51°16' E 004°20'0 0.0
2015-Jul-30 11:30N 51°16' E 004°20'0 0.0
2015-Jul-30 10:32N 51°16' E 004°20'0 0.0
2015-Jul-30 09:33N 51°16' E 004°20'0 0.0
2015-Jul-30 08:32N 51°16' E 004°20'0 0.0
2015-Jul-30 07:33N 51°16' E 004°20'0 0.0
2015-Jul-30 06:33N 51°16' E 004°20'0 0.0
2015-Jul-30 05:30N 51°16' E 004°20'0 0.0
2015-Jul-30 04:33N 51°16' E 004°20'0 0.0
2015-Jul-30 03:33N 51°16' E 004°20'0 0.0
2015-Jul-30 02:33N 51°16' E 004°20'0 0.0
2015-Jul-30 01:32N 51°16' E 004°20'0 0.0
2015-Jul-30 00:33N 51°16' E 004°20'0 0.0
2015-Jul-29 23:32N 51°16' E 004°20'0 0.0
2015-Jul-29 22:33N 51°16' E 004°20'0 0.0
2015-Jul-29 21:32N 51°16' E 004°20'0 0.0
2015-Jul-29 20:33N 51°16' E 004°20'0 0.0
2015-Jul-29 19:33N 51°16' E 004°20'0 0.0
2015-Jul-29 18:33N 51°16' E 004°20'0 0.0
2015-Jul-29 17:32N 51°16' E 004°20'0 0.0
2015-Jul-29 16:33N 51°16' E 004°20'0 0.0
2015-Jul-29 15:33N 51°16' E 004°20'0 0.0
2015-Jul-29 14:33N 51°16' E 004°20'0 0.0
2015-Jul-29 13:33N 51°16' E 004°20'0 0.0
2015-Jul-29 12:32N 51°16' E 004°20'0 0.0
2015-Jul-29 11:29N 51°16' E 004°20'0 0.0
2015-Jul-29 10:33N 51°16' E 004°20'0 0.0
2015-Jul-29 09:33N 51°16' E 004°20'0 0.0
2015-Jul-29 08:33N 51°16' E 004°20'3 2.9
2015-Jul-29 07:33N 51°19' E 004°19'2 2.0
2015-Jul-29 06:33N 51°21' E 004°17'0 0.0
2015-Jul-29 05:33N 51°21' E 004°17'3 2.6
2015-Jul-29 04:33N 51°22' E 004°13'6 6.3
2015-Jul-29 03:33N 51°22' E 004°03'5 5.5
2015-Jul-29 02:34N 51°22' E 003°55'9 8.8
2015-Jul-29 01:34N 51°25' E 003°42'7 7.4
2015-Jul-29 00:34N 51°25' E 003°30'8 8.4
2015-Jul-28 23:33N 51°24' E 003°16'1312.9
2015-Jul-28 22:33N 51°25' E 002°56'9 9.3
2015-Jul-28 21:34N 51°23' E 002°41'10 9.6
2015-Jul-28 20:33N 51°21' E 002°26'1514.7
2015-Jul-28 19:34N 51°13' E 002°06'1414.0
2015-Jul-28 18:33N 51°06' E 001°47'6 6.1
2015-Jul-28 17:33N 51°02' E 001°53'1211.6
2015-Jul-28 16:33N 51°03' E 002°11'6 5.9
2015-Jul-28 15:33N 51°03' E 002°20'3 2.8
2015-Jul-28 14:28N 51°02' E 002°16'0 0.0
2015-Jul-26 23:34N 51°02' E 002°16'2 1.9
2015-Jul-26 22:34N 51°03' E 002°18'2 1.5
2015-Jul-26 21:32N 51°03' E 002°21'19 9.8
2015-Jul-26 19:34N 51°02' E 001°50'3 2.5
2015-Jul-26 18:31N 51°05' E 001°49'0 0.1
2015-Jul-26 17:31N 51°05' E 001°49'0 0.1
2015-Jul-26 16:31N 51°05' E 001°49'0 0.2
2015-Jul-26 15:28N 51°05' E 001°49'0 0.0
2015-Jul-26 14:31N 51°05' E 001°49'0 0.0
2015-Jul-26 13:31N 51°05' E 001°49'0 0.1
2015-Jul-26 12:19N 51°05' E 001°49'0 0.1
2015-Jul-26 11:28N 51°05' E 001°49'0 0.1
2015-Jul-26 10:31N 51°05' E 001°49'0 0.0
2015-Jul-26 09:28N 51°05' E 001°49'0 0.0
2015-Jul-26 08:31N 51°05' E 001°49'0 0.0
2015-Jul-26 07:31N 51°05' E 001°49'0 0.0
2015-Jul-26 06:31N 51°05' E 001°49'0 0.0
2015-Jul-26 05:31N 51°05' E 001°49'0 0.1
2015-Jul-26 04:31N 51°05' E 001°49'0 0.2
2015-Jul-26 03:31N 51°05' E 001°49'0 0.0
2015-Jul-26 02:31N 51°05' E 001°49'0 0.0
2015-Jul-26 01:31N 51°05' E 001°49'0 0.0
2015-Jul-26 00:31N 51°05' E 001°49'0 0.1
2015-Jul-25 23:31N 51°05' E 001°49'0 0.1
2015-Jul-25 22:31N 51°05' E 001°49'0 0.1
2015-Jul-25 21:31N 51°05' E 001°49'0 0.1
2015-Jul-25 20:31N 51°05' E 001°49'0 0.0
2015-Jul-25 19:31N 51°05' E 001°49'0 0.0
2015-Jul-25 18:31N 51°05' E 001°49'0 0.1
2015-Jul-25 17:31N 51°05' E 001°49'0 0.1
2015-Jul-25 16:31N 51°05' E 001°49'0 0.1
2015-Jul-25 15:31N 51°05' E 001°49'0 0.0
2015-Jul-25 14:31N 51°05' E 001°49'0 0.0
2015-Jul-25 13:31N 51°05' E 001°49'0 0.0
2015-Jul-25 12:31N 51°05' E 001°49'0 0.1
2015-Jul-25 11:31N 51°05' E 001°49'0 0.1
2015-Jul-25 10:31N 51°05' E 001°49'0 0.1
2015-Jul-25 09:31N 51°05' E 001°49'0 0.0
2015-Jul-25 08:31N 51°05' E 001°49'0 0.1
2015-Jul-25 07:31N 51°05' E 001°49'0 0.1
2015-Jul-25 06:31N 51°05' E 001°49'0 0.0
2015-Jul-25 05:31N 51°05' E 001°49'0 0.1
2015-Jul-25 04:31N 51°05' E 001°49'0 0.1
2015-Jul-25 03:31N 51°05' E 001°49'0 0.1
2015-Jul-25 02:31N 51°05' E 001°49'0 0.1
2015-Jul-25 01:31N 51°05' E 001°49'0 0.1
2015-Jul-25 00:31N 51°05' E 001°49'0 0.0
2015-Jul-24 23:31N 51°05' E 001°49'0 0.0
2015-Jul-24 22:31N 51°05' E 001°49'0 0.0
2015-Jul-24 21:31N 51°05' E 001°49'0 0.1
2015-Jul-24 20:31N 51°05' E 001°49'0 0.2
2015-Jul-24 19:31N 51°05' E 001°49'0 0.0
2015-Jul-24 18:31N 51°05' E 001°49'2 1.9
2015-Jul-24 17:33N 51°04' E 001°46'8 8.3
2015-Jul-24 16:33N 51°05' E 001°33'1111.0
2015-Jul-24 15:33N 51°13' E 001°45'1414.1
2015-Jul-24 14:33N 51°25' E 001°57'1514.9
2015-Jul-24 13:34N 51°36' E 002°12'1514.9
2015-Jul-24 12:34N 51°47' E 002°29'2113.8
2015-Jul-24 11:03N 52°02' E 002°53'2113.3
2015-Jul-24 09:30N 52°03' E 003°26'1212.4
2015-Jul-24 08:33N 52°06' E 003°45'1010.5
2015-Jul-24 07:33N 52°12' E 003°59'9 8.8
2015-Jul-24 06:33N 52°12' E 004°13'0 0.0
2015-Jul-24 05:33N 52°13' E 004°13'0 0.2
2015-Jul-24 04:33N 52°12' E 004°13'0 0.0
2015-Jul-24 03:34N 52°12' E 004°13'0 0.0
2015-Jul-24 02:33N 52°12' E 004°13'0 0.0
2015-Jul-24 01:33N 52°12' E 004°13'0 0.0
2015-Jul-24 00:33N 52°12' E 004°13'0 0.0
2015-Jul-23 23:33N 52°12' E 004°13'0 0.2
2015-Jul-23 22:33N 52°12' E 004°13'0 0.0
2015-Jul-23 21:33N 52°13' E 004°13'0 0.0
2015-Jul-23 20:33N 52°13' E 004°13'0 0.0
2015-Jul-23 19:33N 52°13' E 004°13'0 0.0
2015-Jul-23 18:33N 52°13' E 004°13'0 0.0
2015-Jul-23 17:33N 52°13' E 004°13'0 0.2
2015-Jul-23 16:33N 52°12' E 004°13'0 0.0
2015-Jul-23 15:33N 52°12' E 004°13'0 0.0
2015-Jul-23 14:33N 52°12' E 004°13'0 0.0
2015-Jul-23 13:33N 52°12' E 004°13'0 0.0
2015-Jul-23 12:33N 52°12' E 004°13'0 0.0
2015-Jul-23 11:33N 52°12' E 004°13'0 0.1
2015-Jul-23 10:33N 52°12' E 004°13'0 0.1
2015-Jul-23 09:33N 52°12' E 004°13'0 0.0
2015-Jul-23 08:33N 52°13' E 004°13'0 0.0
2015-Jul-23 07:33N 52°12' E 004°13'2 1.9
2015-Jul-23 06:33N 52°14' E 004°11'10 9.6
2015-Jul-23 05:33N 52°09' E 003°57'1212.2
2015-Jul-23 04:33N 52°01' E 003°42'1110.8
2015-Jul-23 03:33N 51°56' E 003°27'5210.0
2015-Jul-22 22:21N 51°30' E 002°14'810.2
2015-Jul-22 21:34N 51°23' E 002°07'1110.6
2015-Jul-22 20:33N 51°13' E 002°03'1111.4
2015-Jul-22 19:33N 51°07' E 001°47'1212.2
2015-Jul-22 18:34N 50°59' E 001°33'1612.6
2015-Jul-22 17:17N 50°44' E 001°23'1312.6
2015-Jul-22 16:15N 50°35' E 001°08'10513.6
2015-Jul-22 08:34N 50°04' W 001°28'2712.1
2015-Jul-22 06:22N 49°57' W 002°08'  
Track history (hours):
 
Tides and Currents Weather Stations Pressure Air Temp Water Temp Dewpoint Dewpoint Depression Visibility Wind Speed Wind Dir Waves Ship Positions

Bastille Street

Last reported at 2015-Jul-31 08:33 UTC. Time now 2015-Jul-31 09:26 UTC.
Position N 51°16' E 004°20'.

Length 180 m; draft 8.4 m.

MMSI: 636015161.

Date/timePositionNaut miles runAvg speedWind from/ knotsBaromVisibWave heightAir tempDewpointWater temp
2015-Jul-31 08:33N 51°16' E 004°20'0 0.0
2015-Jul-31 07:27N 51°16' E 004°20'0 0.0
2015-Jul-31 06:30N 51°16' E 004°20'0 0.0
2015-Jul-31 05:32N 51°16' E 004°20'0 0.0
2015-Jul-31 04:32N 51°16' E 004°20'0 0.0
2015-Jul-31 03:32N 51°16' E 004°20'0 0.0
2015-Jul-31 02:29N 51°16' E 004°20'0 0.0
2015-Jul-31 01:32N 51°16' E 004°20'0 0.0
2015-Jul-31 00:33N 51°16' E 004°20'0 0.0
2015-Jul-30 23:32N 51°16' E 004°20'0 0.0
2015-Jul-30 22:32N 51°16' E 004°20'0 0.0
2015-Jul-30 21:32N 51°16' E 004°20'0 0.0
2015-Jul-30 20:33N 51°16' E 004°20'0 0.0
2015-Jul-30 19:29N 51°16' E 004°20'0 0.0
2015-Jul-30 18:33N 51°16' E 004°20'0 0.0
2015-Jul-30 17:33N 51°16' E 004°20'0 0.0
2015-Jul-30 16:32N 51°16' E 004°20'0 0.0
2015-Jul-30 15:33N 51°16' E 004°20'0 0.0
2015-Jul-30 14:27N 51°16' E 004°20'0 0.0
2015-Jul-30 13:30N 51°16' E 004°20'0 0.0
2015-Jul-30 12:33N 51°16' E 004°20'0 0.0
2015-Jul-30 11:30N 51°16' E 004°20'0 0.0
2015-Jul-30 10:32N 51°16' E 004°20'0 0.0
2015-Jul-30 09:33N 51°16' E 004°20'0 0.0
2015-Jul-30 08:32N 51°16' E 004°20'0 0.0
2015-Jul-30 07:33N 51°16' E 004°20'0 0.0
2015-Jul-30 06:33N 51°16' E 004°20'0 0.0
2015-Jul-30 05:30N 51°16' E 004°20'0 0.0
2015-Jul-30 04:33N 51°16' E 004°20'0 0.0
2015-Jul-30 03:33N 51°16' E 004°20'0 0.0
2015-Jul-30 02:33N 51°16' E 004°20'0 0.0
2015-Jul-30 01:32N 51°16' E 004°20'0 0.0
2015-Jul-30 00:33N 51°16' E 004°20'0 0.0
2015-Jul-29 23:32N 51°16' E 004°20'0 0.0
2015-Jul-29 22:33N 51°16' E 004°20'0 0.0
2015-Jul-29 21:32N 51°16' E 004°20'0 0.0
2015-Jul-29 20:33N 51°16' E 004°20'0 0.0
2015-Jul-29 19:33N 51°16' E 004°20'0 0.0
2015-Jul-29 18:33N 51°16' E 004°20'0 0.0
2015-Jul-29 17:32N 51°16' E 004°20'0 0.0
2015-Jul-29 16:33N 51°16' E 004°20'0 0.0
2015-Jul-29 15:33N 51°16' E 004°20'0 0.0
2015-Jul-29 14:33N 51°16' E 004°20'0 0.0
2015-Jul-29 13:33N 51°16' E 004°20'0 0.0
2015-Jul-29 12:32N 51°16' E 004°20'0 0.0
2015-Jul-29 11:29N 51°16' E 004°20'0 0.0
2015-Jul-29 10:33N 51°16' E 004°20'0 0.0
2015-Jul-29 09:33N 51°16' E 004°20'0 0.0
2015-Jul-29 08:33N 51°16' E 004°20'3 2.9
2015-Jul-29 07:33N 51°19' E 004°19'2 2.0
2015-Jul-29 06:33N 51°21' E 004°17'0 0.0
2015-Jul-29 05:33N 51°21' E 004°17'3 2.6
2015-Jul-29 04:33N 51°22' E 004°13'6 6.3
2015-Jul-29 03:33N 51°22' E 004°03'5 5.5
2015-Jul-29 02:34N 51°22' E 003°55'9 8.8
2015-Jul-29 01:34N 51°25' E 003°42'7 7.4
2015-Jul-29 00:34N 51°25' E 003°30'8 8.4
2015-Jul-28 23:33N 51°24' E 003°16'1312.9
2015-Jul-28 22:33N 51°25' E 002°56'9 9.3
2015-Jul-28 21:34N 51°23' E 002°41'10 9.6
2015-Jul-28 20:33N 51°21' E 002°26'1514.7
2015-Jul-28 19:34N 51°13' E 002°06'1414.0
2015-Jul-28 18:33N 51°06' E 001°47'6 6.1
2015-Jul-28 17:33N 51°02' E 001°53'1211.6
2015-Jul-28 16:33N 51°03' E 002°11'6 5.9
2015-Jul-28 15:33N 51°03' E 002°20'3 2.8
2015-Jul-28 14:28N 51°02' E 002°16'0 0.0
2015-Jul-26 23:34N 51°02' E 002°16'2 1.9
2015-Jul-26 22:34N 51°03' E 002°18'2 1.5
2015-Jul-26 21:32N 51°03' E 002°21'19 9.8
2015-Jul-26 19:34N 51°02' E 001°50'3 2.5
2015-Jul-26 18:31N 51°05' E 001°49'0 0.1
2015-Jul-26 17:31N 51°05' E 001°49'0 0.1
2015-Jul-26 16:31N 51°05' E 001°49'0 0.2
2015-Jul-26 15:28N 51°05' E 001°49'0 0.0
2015-Jul-26 14:31N 51°05' E 001°49'0 0.0
2015-Jul-26 13:31N 51°05' E 001°49'0 0.1
2015-Jul-26 12:19N 51°05' E 001°49'0 0.1
2015-Jul-26 11:28N 51°05' E 001°49'0 0.1
2015-Jul-26 10:31N 51°05' E 001°49'0 0.0
2015-Jul-26 09:28N 51°05' E 001°49'0 0.0
2015-Jul-26 08:31N 51°05' E 001°49'0 0.0
2015-Jul-26 07:31N 51°05' E 001°49'0 0.0
2015-Jul-26 06:31N 51°05' E 001°49'0 0.0
2015-Jul-26 05:31N 51°05' E 001°49'0 0.1
2015-Jul-26 04:31N 51°05' E 001°49'0 0.2
2015-Jul-26 03:31N 51°05' E 001°49'0 0.0
2015-Jul-26 02:31N 51°05' E 001°49'0 0.0
2015-Jul-26 01:31N 51°05' E 001°49'0 0.0
2015-Jul-26 00:31N 51°05' E 001°49'0 0.1
2015-Jul-25 23:31N 51°05' E 001°49'0 0.1
2015-Jul-25 22:31N 51°05' E 001°49'0 0.1
2015-Jul-25 21:31N 51°05' E 001°49'0 0.1
2015-Jul-25 20:31N 51°05' E 001°49'0 0.0
2015-Jul-25 19:31N 51°05' E 001°49'0 0.0
2015-Jul-25 18:31N 51°05' E 001°49'0 0.1
2015-Jul-25 17:31N 51°05' E 001°49'0 0.1
2015-Jul-25 16:31N 51°05' E 001°49'0 0.1
2015-Jul-25 15:31N 51°05' E 001°49'0 0.0
2015-Jul-25 14:31N 51°05' E 001°49'0 0.0
2015-Jul-25 13:31N 51°05' E 001°49'0 0.0
2015-Jul-25 12:31N 51°05' E 001°49'0 0.1
2015-Jul-25 11:31N 51°05' E 001°49'0 0.1
2015-Jul-25 10:31N 51°05' E 001°49'0 0.1
2015-Jul-25 09:31N 51°05' E 001°49'0 0.0
2015-Jul-25 08:31N 51°05' E 001°49'0 0.1
2015-Jul-25 07:31N 51°05' E 001°49'0 0.1
2015-Jul-25 06:31N 51°05' E 001°49'0 0.0
2015-Jul-25 05:31N 51°05' E 001°49'0 0.1
2015-Jul-25 04:31N 51°05' E 001°49'0 0.1
2015-Jul-25 03:31N 51°05' E 001°49'0 0.1
2015-Jul-25 02:31N 51°05' E 001°49'0 0.1
2015-Jul-25 01:31N 51°05' E 001°49'0 0.1
2015-Jul-25 00:31N 51°05' E 001°49'0 0.0
2015-Jul-24 23:31N 51°05' E 001°49'0 0.0
2015-Jul-24 22:31N 51°05' E 001°49'0 0.0
2015-Jul-24 21:31N 51°05' E 001°49'0 0.1
2015-Jul-24 20:31N 51°05' E 001°49'0 0.2
2015-Jul-24 19:31N 51°05' E 001°49'0 0.0
2015-Jul-24 18:31N 51°05' E 001°49'2 1.9
2015-Jul-24 17:33N 51°04' E 001°46'8 8.3
2015-Jul-24 16:33N 51°05' E 001°33'1111.0
2015-Jul-24 15:33N 51°13' E 001°45'1414.1
2015-Jul-24 14:33N 51°25' E 001°57'1514.9
2015-Jul-24 13:34N 51°36' E 002°12'1514.9
2015-Jul-24 12:34N 51°47' E 002°29'2113.8
2015-Jul-24 11:03N 52°02' E 002°53'2113.3
2015-Jul-24 09:30N 52°03' E 003°26'1212.4
2015-Jul-24 08:33N 52°06' E 003°45'1010.5
2015-Jul-24 07:33N 52°12' E 003°59'9 8.8
2015-Jul-24 06:33N 52°12' E 004°13'0 0.0
2015-Jul-24 05:33N 52°13' E 004°13'0 0.2
2015-Jul-24 04:33N 52°12' E 004°13'0 0.0
2015-Jul-24 03:34N 52°12' E 004°13'0 0.0
2015-Jul-24 02:33N 52°12' E 004°13'0 0.0
2015-Jul-24 01:33N 52°12' E 004°13'0 0.0
2015-Jul-24 00:33N 52°12' E 004°13'0 0.0
2015-Jul-23 23:33N 52°12' E 004°13'0 0.2
2015-Jul-23 22:33N 52°12' E 004°13'0 0.0
2015-Jul-23 21:33N 52°13' E 004°13'0 0.0
2015-Jul-23 20:33N 52°13' E 004°13'0 0.0
2015-Jul-23 19:33N 52°13' E 004°13'0 0.0
2015-Jul-23 18:33N 52°13' E 004°13'0 0.0
2015-Jul-23 17:33N 52°13' E 004°13'0 0.2
2015-Jul-23 16:33N 52°12' E 004°13'0 0.0
2015-Jul-23 15:33N 52°12' E 004°13'0 0.0
2015-Jul-23 14:33N 52°12' E 004°13'0 0.0
2015-Jul-23 13:33N 52°12' E 004°13'0 0.0
2015-Jul-23 12:33N 52°12' E 004°13'0 0.0
2015-Jul-23 11:33N 52°12' E 004°13'0 0.1
2015-Jul-23 10:33N 52°12' E 004°13'0 0.1
2015-Jul-23 09:33N 52°12' E 004°13'0 0.0
2015-Jul-23 08:33N 52°13' E 004°13'0 0.0
2015-Jul-23 07:33N 52°12' E 004°13'2 1.9
2015-Jul-23 06:33N 52°14' E 004°11'10 9.6
2015-Jul-23 05:33N 52°09' E 003°57'1212.2
2015-Jul-23 04:33N 52°01' E 003°42'1110.8
2015-Jul-23 03:33N 51°56' E 003°27'5210.0
2015-Jul-22 22:21N 51°30' E 002°14'810.2
2015-Jul-22 21:34N 51°23' E 002°07'1110.6
2015-Jul-22 20:33N 51°13' E 002°03'1111.4
2015-Jul-22 19:33N 51°07' E 001°47'1212.2
2015-Jul-22 18:34N 50°59' E 001°33'1612.6
2015-Jul-22 17:17N 50°44' E 001°23'1312.6
2015-Jul-22 16:15N 50°35' E 001°08'10513.6
2015-Jul-22 08:34N 50°04' W 001°28'2712.1
2015-Jul-22 06:22N 49°57' W 002°08'  

Dump ship's entire track history